EPWR/WRO METAR and TAF weather

Enter ICAO airport designator
Station Type Date Time Source
EPWR METAR 2021/05/07 00:00 UTC NOAA

EPWR 070000Z 25003KT 210V310 9999 RA BKN030 07/06 Q1005


Station Type Date Time Source
EPWR Decoded METAR 2021/05/07 00:00 UTC NOAA

Wroclaw Ii, Poland (EPWR) 51-06N 016-53E 121M
May 06, 2021 - 08:00 PM EDT / 2021.05.07 0000 UTC
Wind: from the WSW (250 degrees) at 3 MPH (3 KT) (direction variable):0
Visibility: greater than 7 mile(s):0
Sky conditions: mostly cloudy
Weather: rain
Temperature: 44 F (7 C)
Dew Point: 42 F (6 C)
Relative Humidity: 93%
Pressure (altimeter): 29.68 in. Hg (1005 hPa)
ob: EPWR 070000Z 25003KT 210V310 9999 RA BKN030 07/06 Q1005
cycle: 0

Station Type Date Time Source
EPWR TAF 2021/05/06 21:37 UTC NOAA

TAF EPWR 062030Z 0621/0721 12002KT 9999 SCT030
TEMPO 0622/0702 4000 RA BR BKN010
BECMG 0702/0705 2500 -RADZ BR BKN005
BECMG 0707/0710 28015KT 9999 SCT030
TEMPO 0710/0720 30015G25KT SHRA BKN015CB PROB30
TEMPO 0710/0716 VRB20G40KT TSRA

Example: see airport list